createdAt,value
2023-05-13T00:01:38.416Z,4.65
2023-05-13T00:06:48.619Z,3.55
2023-05-13T00:09:16.848Z,8.43
2023-05-13T00:11:45.069Z,4.00
2023-05-13T00:14:13.382Z,4.82
2023-05-13T00:16:43.371Z,3.50
2023-05-13T00:19:12.188Z,3.72
2023-05-13T00:21:41.134Z,3.35
2023-05-13T00:24:09.452Z,3.90
2023-05-13T00:26:37.674Z,3.92
2023-05-13T00:29:05.882Z,5.18
2023-05-13T00:31:34.213Z,4.30
2023-05-13T00:34:04.226Z,4.88
2023-05-13T00:36:32.469Z,5.13
2023-05-13T00:39:00.671Z,4.82
2023-05-13T00:41:28.927Z,5.22
2023-05-13T00:43:57.759Z,5.50
2023-05-13T00:46:26.117Z,4.72
2023-05-13T00:48:54.495Z,5.43
2023-05-13T00:51:24.104Z,6.72
2023-05-13T00:53:52.847Z,5.65
2023-05-13T00:56:21.819Z,5.30
2023-05-13T00:58:50.318Z,6.07
2023-05-13T01:01:35.952Z,5.05
2023-05-13T01:04:13.535Z,5.50
2023-05-13T01:06:53.601Z,8.20
2023-05-13T01:09:30.723Z,9.68
2023-05-13T01:12:04.352Z,6.07
2023-05-13T01:14:35.444Z,6.25
2023-05-13T01:17:11.437Z,6.50
2023-05-13T01:19:44.065Z,7.75
2023-05-13T01:22:14.186Z,8.00
2023-05-13T01:24:42.401Z,7.45
2023-05-13T01:27:10.780Z,8.00
2023-05-13T01:29:40.835Z,8.90
2023-05-13T01:32:09.952Z,8.38
2023-05-13T01:34:38.699Z,8.13
2023-05-13T01:37:07.070Z,8.40
2023-05-13T01:39:38.600Z,10.27
2023-05-13T01:42:07.278Z,8.30
2023-05-13T01:44:35.804Z,10.23
2023-05-13T01:47:04.123Z,9.88
2023-05-13T01:49:32.367Z,8.90
2023-05-13T01:52:00.630Z,8.93
2023-05-13T01:54:28.807Z,9.50
2023-05-13T01:56:58.412Z,11.65
2023-05-13T01:59:26.603Z,9.55
2023-05-13T02:01:54.879Z,10.27
2023-05-13T02:04:23.217Z,10.45
2023-05-13T02:06:51.535Z,10.38
2023-05-13T02:09:19.872Z,11.43
2023-05-13T02:11:48.230Z,11.95
2023-05-13T02:14:17.959Z,11.48
2023-05-13T02:16:46.295Z,14.53
2023-05-13T02:19:14.589Z,11.68
2023-05-13T02:21:43.543Z,11.95
2023-05-13T02:24:11.848Z,10.48
2023-05-13T02:26:41.568Z,12.00
2023-05-13T02:29:09.884Z,16.37
2023-05-13T02:31:39.505Z,14.60
2023-05-13T02:34:07.732Z,15.23
2023-05-13T02:36:36.007Z,15.57
2023-05-13T02:39:04.317Z,15.60
2023-05-13T02:41:32.676Z,14.38
2023-05-13T02:44:00.946Z,14.57
2023-05-13T02:46:29.228Z,12.48
2023-05-13T02:48:59.353Z,11.25
2023-05-13T02:51:27.612Z,12.07
2023-05-13T02:53:55.840Z,11.70
2023-05-13T02:56:24.135Z,11.18
2023-05-13T02:58:52.518Z,11.40
2023-05-13T03:01:20.894Z,14.32
2023-05-13T03:03:49.181Z,12.30
2023-05-13T03:06:18.866Z,11.13
2023-05-13T03:08:47.210Z,11.97
2023-05-13T03:11:15.534Z,13.85
2023-05-13T03:13:43.790Z,11.07
2023-05-13T03:16:12.037Z,12.40
2023-05-13T03:18:40.429Z,10.05
2023-05-13T03:21:08.719Z,12.15
2023-05-13T03:23:38.680Z,11.27
2023-05-13T03:26:06.933Z,10.38
2023-05-13T03:28:35.182Z,11.80
2023-05-13T03:31:03.478Z,11.90
2023-05-13T03:33:31.780Z,10.90
2023-05-13T03:36:00.032Z,12.93
2023-05-13T03:38:28.281Z,12.18
2023-05-13T03:40:58.149Z,13.05
2023-05-13T03:43:26.767Z,10.73
2023-05-13T03:45:54.971Z,14.00
2023-05-13T03:48:23.178Z,13.30
2023-05-13T03:50:53.093Z,12.32
2023-05-13T03:53:21.310Z,14.52
2023-05-13T03:55:49.896Z,13.82
2023-05-13T03:58:21.696Z,13.32
2023-05-13T04:00:50.388Z,11.88
2023-05-13T04:03:19.097Z,13.07
2023-05-13T04:05:47.858Z,12.05
2023-05-13T04:08:16.477Z,12.27
2023-05-13T04:10:44.872Z,10.95
2023-05-13T04:13:13.183Z,11.98
2023-05-13T04:15:42.760Z,12.13
2023-05-13T04:18:11.028Z,11.98
2023-05-13T04:20:39.944Z,13.70
2023-05-13T04:23:08.243Z,13.90
2023-05-13T04:25:36.869Z,13.73
2023-05-13T04:28:05.504Z,12.95
2023-05-13T04:30:33.744Z,13.65
2023-05-13T04:33:03.492Z,15.13
2023-05-13T04:35:31.797Z,13.77
2023-05-13T04:38:00.120Z,15.40
2023-05-13T04:40:28.437Z,14.60
2023-05-13T04:42:56.649Z,12.50
2023-05-13T04:45:25.079Z,10.20
2023-05-13T04:47:54.900Z,12.27
2023-05-13T04:50:26.058Z,11.60
2023-05-13T04:52:56.478Z,11.77
2023-05-13T04:55:27.389Z,10.65
2023-05-13T04:57:56.047Z,9.65
2023-05-13T05:00:25.062Z,9.25
2023-05-13T05:02:53.307Z,9.45
2023-05-13T05:05:21.562Z,9.57
2023-05-13T05:07:51.163Z,10.35
2023-05-13T05:10:19.863Z,11.52
2023-05-13T05:12:48.998Z,10.23
2023-05-13T05:15:17.291Z,11.38
2023-05-13T05:17:46.152Z,9.52
2023-05-13T05:20:14.469Z,13.40
2023-05-13T05:22:42.844Z,12.73
2023-05-13T05:25:12.544Z,14.68
2023-05-13T05:27:40.741Z,15.43
2023-05-13T05:30:11.309Z,15.80
2023-05-13T05:35:08.622Z,11.70
2023-05-13T05:37:36.880Z,14.15
2023-05-13T05:40:06.113Z,11.90
2023-05-13T05:42:35.777Z,12.57
2023-05-13T05:45:04.445Z,14.73
2023-05-13T05:47:32.670Z,14.70
2023-05-13T05:50:01.280Z,12.48
2023-05-13T05:52:29.497Z,15.90
2023-05-13T05:54:57.698Z,10.13
2023-05-13T05:57:25.920Z,12.70
2023-05-13T05:59:55.575Z,13.10
2023-05-13T06:02:23.986Z,10.90
2023-05-13T06:04:52.264Z,15.27
2023-05-13T06:07:20.657Z,12.82
2023-05-13T06:09:48.931Z,13.13
2023-05-13T06:12:17.229Z,12.35
2023-05-13T06:14:45.488Z,12.30
2023-05-13T06:17:15.747Z,12.00
2023-05-13T06:19:44.015Z,12.27
2023-05-13T06:22:12.820Z,14.10
2023-05-13T06:24:42.663Z,13.35
2023-05-13T06:27:11.606Z,14.20
2023-05-13T06:29:39.861Z,13.40
2023-05-13T06:32:08.544Z,11.90
2023-05-13T06:34:40.057Z,12.00
2023-05-13T06:37:08.587Z,12.57
2023-05-13T06:39:36.926Z,12.95
2023-05-13T06:42:05.832Z,13.90
2023-05-13T06:44:34.143Z,13.10
2023-05-13T06:47:05.023Z,13.43
2023-05-13T06:49:34.308Z,14.02
2023-05-13T06:52:03.940Z,12.75
2023-05-13T06:54:32.177Z,11.17
2023-05-13T06:57:00.837Z,11.95
2023-05-13T06:59:30.311Z,12.70
2023-05-13T07:01:58.566Z,11.50
2023-05-13T07:04:26.834Z,9.20
2023-05-13T07:06:55.393Z,10.10
2023-05-13T07:09:24.989Z,9.82
2023-05-13T07:11:53.262Z,9.37
2023-05-13T07:14:21.479Z,8.02
2023-05-13T07:16:49.799Z,8.18
2023-05-13T07:19:18.246Z,7.57
2023-05-13T07:21:46.566Z,7.30
2023-05-13T07:24:15.074Z,6.82
2023-05-13T07:26:44.629Z,6.18
2023-05-13T07:29:12.869Z,6.82
2023-05-13T07:31:41.186Z,6.60
2023-05-13T07:34:09.524Z,8.60
2023-05-13T07:36:37.822Z,5.65
2023-05-13T07:39:08.745Z,5.85
2023-05-13T07:41:37.468Z,4.90
2023-05-13T07:44:11.683Z,4.63
2023-05-13T07:46:40.082Z,4.85
2023-05-13T07:49:09.150Z,4.97
2023-05-13T07:51:37.604Z,5.00
2023-05-13T07:54:05.852Z,4.15
2023-05-13T07:56:34.156Z,6.60
2023-05-13T07:59:02.392Z,4.05
2023-05-13T08:01:31.968Z,3.63
2023-05-13T08:04:00.564Z,3.77
2023-05-13T08:06:28.932Z,4.05
2023-05-13T08:08:57.218Z,3.10
2023-05-13T08:11:26.953Z,3.28
2023-05-13T08:13:55.219Z,3.28
2023-05-13T08:16:23.507Z,3.22
2023-05-13T08:18:53.413Z,5.60
2023-05-13T08:21:21.752Z,3.63
2023-05-13T08:23:50.979Z,6.72
2023-05-13T08:26:19.322Z,4.80
2023-05-13T08:31:16.911Z,4.18
2023-05-13T08:33:47.411Z,4.15
2023-05-13T08:36:17.607Z,5.03
2023-05-13T08:38:46.109Z,7.47
2023-05-13T08:41:15.102Z,5.10
2023-05-13T08:43:44.218Z,6.65
2023-05-13T08:46:13.199Z,5.15
2023-05-13T08:48:42.830Z,6.00
2023-05-13T08:51:11.221Z,6.00
2023-05-13T08:53:41.517Z,5.90
2023-05-13T08:56:10.266Z,5.03
2023-05-13T08:58:38.476Z,4.68
2023-05-13T09:01:07.226Z,5.10
2023-05-13T09:03:36.242Z,5.30
2023-05-13T09:06:04.994Z,5.75
2023-05-13T09:08:33.442Z,4.13
2023-05-13T09:11:03.133Z,4.82
2023-05-13T09:13:31.337Z,6.30
2023-05-13T09:15:59.610Z,5.60
2023-05-13T09:18:31.229Z,5.93
2023-05-13T09:20:59.518Z,5.15
2023-05-13T09:23:28.153Z,5.70
2023-05-13T09:25:56.444Z,6.07
2023-05-13T09:28:26.272Z,6.78
2023-05-13T09:30:56.830Z,6.10
2023-05-13T09:33:31.487Z,6.55
2023-05-13T09:36:00.120Z,5.25
2023-05-13T09:38:31.606Z,4.65
2023-05-13T09:41:01.486Z,4.97
2023-05-13T09:43:33.343Z,4.93
2023-05-13T09:46:02.847Z,4.47
2023-05-13T09:48:33.744Z,4.82
2023-05-13T09:51:02.195Z,3.80
2023-05-13T09:53:30.873Z,4.05
2023-05-13T09:56:00.422Z,3.47
2023-05-13T09:58:30.825Z,4.03
2023-05-13T10:01:00.835Z,3.63
2023-05-13T10:03:29.665Z,3.70
2023-05-13T10:05:59.013Z,4.85
2023-05-13T10:08:29.366Z,3.70
2023-05-13T10:10:57.926Z,3.55
2023-05-13T10:13:26.276Z,3.90
2023-05-13T10:15:55.591Z,3.90
2023-05-13T10:18:25.560Z,5.18
2023-05-13T10:20:54.178Z,4.40
2023-05-13T10:23:24.180Z,3.75
2023-05-13T10:25:54.797Z,5.05
2023-05-13T10:28:23.312Z,3.60
2023-05-13T10:30:52.622Z,5.47
2023-05-13T10:33:21.808Z,3.47
2023-05-13T10:36:04.882Z,2.83
2023-05-13T10:38:45.340Z,5.15
2023-05-13T10:41:26.863Z,3.08
2023-05-13T10:43:58.089Z,2.85
2023-05-13T10:46:27.582Z,2.60
2023-05-13T10:49:01.546Z,5.20
2023-05-13T10:51:32.254Z,2.63
2023-05-13T10:54:00.527Z,2.60
2023-05-13T10:56:29.823Z,2.55
2023-05-13T10:58:59.310Z,2.45
2023-05-13T11:01:29.982Z,3.90
2023-05-13T11:04:00.120Z,3.22
2023-05-13T11:06:35.271Z,3.72
2023-05-13T11:09:06.336Z,2.97
2023-05-13T11:11:35.598Z,2.83
2023-05-13T11:14:08.815Z,4.70
2023-05-13T11:16:38.123Z,2.83
2023-05-13T11:19:10.903Z,3.65
2023-05-13T11:21:41.293Z,2.40
2023-05-13T11:24:09.707Z,2.40
2023-05-13T11:26:49.074Z,3.05
2023-05-13T11:29:28.812Z,4.43
2023-05-13T11:32:00.274Z,3.08
2023-05-13T11:34:29.454Z,2.30
2023-05-13T11:37:08.643Z,2.60
2023-05-13T11:39:37.450Z,2.28
2023-05-13T11:42:08.921Z,2.40
2023-05-13T11:44:37.854Z,2.35
2023-05-13T11:47:08.133Z,2.50
2023-05-13T11:49:39.786Z,2.47
2023-05-13T11:52:11.298Z,2.33
2023-05-13T11:54:48.521Z,3.70
2023-05-13T11:57:20.534Z,2.65
2023-05-13T11:59:57.661Z,2.70
2023-05-13T12:02:28.131Z,2.70
2023-05-13T12:04:57.104Z,2.75
2023-05-13T12:07:27.697Z,2.63
2023-05-13T12:09:58.236Z,2.40
2023-05-13T12:14:56.223Z,3.85
2023-05-13T12:17:25.024Z,2.55
2023-05-13T12:20:06.639Z,2.40
2023-05-13T12:22:37.124Z,3.50
2023-05-13T12:27:53.085Z,3.63
2023-05-13T12:30:21.504Z,3.47
2023-05-13T12:32:49.797Z,3.30
2023-05-13T12:35:18.079Z,3.38
2023-05-13T12:38:00.280Z,2.65
2023-05-13T12:40:28.554Z,2.75
2023-05-13T12:43:00.170Z,2.60
2023-05-13T12:45:30.165Z,2.80
2023-05-13T12:47:59.347Z,2.55
2023-05-13T12:50:27.958Z,3.03
2023-05-13T12:52:59.907Z,2.90
2023-05-13T12:55:28.286Z,3.25
2023-05-13T12:57:57.462Z,3.15
2023-05-13T13:00:26.724Z,3.03
2023-05-13T13:02:55.066Z,3.17
2023-05-13T13:05:24.248Z,2.75
2023-05-13T13:07:52.713Z,2.80
2023-05-13T13:10:22.431Z,2.92
2023-05-13T13:12:50.854Z,3.15
2023-05-13T13:15:19.067Z,3.70
2023-05-13T13:17:47.421Z,2.90
2023-05-13T13:20:15.737Z,3.35
2023-05-13T13:22:43.961Z,6.15
2023-05-13T13:25:12.220Z,4.40
2023-05-13T13:27:41.935Z,4.07
2023-05-13T13:30:10.798Z,3.40
2023-05-13T13:32:38.999Z,5.10
2023-05-13T13:35:08.067Z,4.82
2023-05-13T13:37:38.059Z,3.50
2023-05-13T13:40:07.551Z,3.28
2023-05-13T13:42:44.238Z,3.50
2023-05-13T13:45:14.967Z,3.40
2023-05-13T13:47:43.570Z,3.47
2023-05-13T13:50:12.813Z,3.88
2023-05-13T13:52:41.101Z,3.45
2023-05-13T13:55:11.622Z,3.10
2023-05-13T13:57:40.154Z,3.20
2023-05-13T14:00:09.577Z,3.38
2023-05-13T14:02:39.263Z,5.43
2023-05-13T14:05:08.580Z,1.60
2023-05-13T14:07:37.317Z,2.45
2023-05-13T14:10:06.524Z,2.20
2023-05-13T14:12:35.929Z,3.50
2023-05-13T14:15:04.554Z,2.08
2023-05-13T14:17:33.332Z,1.80
2023-05-13T14:20:03.676Z,1.90
2023-05-13T14:22:31.906Z,1.60
2023-05-13T14:25:01.345Z,2.33
2023-05-13T14:27:29.811Z,1.60
2023-05-13T14:29:58.078Z,2.47
2023-05-13T14:32:26.391Z,2.25
2023-05-13T14:34:54.625Z,2.10
2023-05-13T14:37:24.245Z,1.83
2023-05-13T14:39:52.440Z,2.00
2023-05-13T14:42:21.155Z,3.50
2023-05-13T14:44:49.358Z,2.38
2023-05-13T14:47:17.664Z,2.13
2023-05-13T14:49:45.881Z,1.77
2023-05-13T14:52:14.230Z,2.13
2023-05-13T14:54:43.869Z,1.60
2023-05-13T14:57:12.223Z,2.30
2023-05-13T14:59:40.469Z,1.77
2023-05-13T15:02:09.320Z,1.85
2023-05-13T15:04:37.565Z,1.88
2023-05-13T15:07:06.309Z,1.77
2023-05-13T15:09:34.633Z,3.45
2023-05-13T15:12:04.306Z,2.13
2023-05-13T15:14:32.549Z,3.65
2023-05-13T15:17:00.942Z,2.35
2023-05-13T15:19:29.294Z,2.35
2023-05-13T15:21:57.634Z,2.00
2023-05-13T15:24:25.903Z,1.42
2023-05-13T15:26:54.189Z,1.48
2023-05-13T15:29:23.794Z,3.30
2023-05-13T15:31:52.039Z,1.63
2023-05-13T15:34:20.320Z,1.50
2023-05-13T15:36:48.688Z,1.20
2023-05-13T15:39:17.537Z,3.25
2023-05-13T15:41:45.835Z,2.58
2023-05-13T15:44:14.169Z,4.53
2023-05-13T15:46:43.814Z,1.45
2023-05-13T15:49:12.132Z,1.20
2023-05-13T15:51:40.411Z,5.15
2023-05-13T15:54:08.733Z,1.50
2023-05-13T15:56:37.103Z,2.83
2023-05-13T15:59:05.376Z,1.27
2023-05-13T16:01:33.755Z,2.10
2023-05-13T16:04:03.400Z,1.80
2023-05-13T16:06:31.849Z,1.73
2023-05-13T16:09:01.787Z,2.15
2023-05-13T16:11:30.310Z,3.00
2023-05-13T16:13:58.772Z,1.80
2023-05-13T16:16:27.136Z,1.73
2023-05-13T16:18:55.556Z,1.50
2023-05-13T16:21:25.324Z,1.73
2023-05-13T16:23:53.634Z,1.90
2023-05-13T16:26:22.432Z,2.20
2023-05-13T16:28:51.114Z,1.95
2023-05-13T16:31:19.639Z,2.15
2023-05-13T16:33:47.911Z,1.98
2023-05-13T16:36:17.436Z,2.75
2023-05-13T16:38:47.452Z,1.50
2023-05-13T16:41:15.738Z,1.35
2023-05-13T16:43:43.942Z,2.35
2023-05-13T16:46:12.249Z,1.20
2023-05-13T16:48:40.579Z,1.45
2023-05-13T16:51:08.905Z,1.33
2023-05-13T16:53:37.147Z,1.10
2023-05-13T16:56:07.084Z,1.33
2023-05-13T16:58:35.353Z,1.08
2023-05-13T17:01:03.726Z,3.65
2023-05-13T17:03:32.077Z,2.30
2023-05-13T17:06:00.381Z,2.05
2023-05-13T17:08:28.698Z,1.77
2023-05-13T17:10:56.966Z,1.60
2023-05-13T17:13:26.668Z,1.38
2023-05-13T17:15:55.042Z,1.30
2023-05-13T17:18:23.561Z,2.60
2023-05-13T17:20:51.881Z,1.65
2023-05-13T17:23:20.212Z,1.92
2023-05-13T17:25:48.562Z,1.58
2023-05-13T17:28:16.813Z,1.20
2023-05-13T17:30:46.530Z,1.83
2023-05-13T17:33:14.829Z,0.85
2023-05-13T17:35:43.136Z,1.65
2023-05-13T17:38:11.384Z,1.10
2023-05-13T17:40:39.631Z,1.30
2023-05-13T17:43:07.945Z,1.10
2023-05-13T17:45:36.634Z,0.85
2023-05-13T17:48:07.102Z,1.35
2023-05-13T17:53:03.478Z,1.00
2023-05-13T17:55:31.722Z,1.15
2023-05-13T17:57:59.964Z,2.13
2023-05-13T18:00:28.406Z,1.60
2023-05-13T18:02:56.675Z,3.70
2023-05-13T18:05:26.302Z,3.40
2023-05-13T18:07:54.601Z,1.07
2023-05-13T18:10:23.052Z,4.60
2023-05-13T18:12:51.863Z,1.27
2023-05-13T18:15:20.157Z,1.25
2023-05-13T18:17:48.463Z,1.63
2023-05-13T18:20:16.954Z,1.88
2023-05-13T18:22:46.704Z,1.85
2023-05-13T18:25:14.924Z,1.70
2023-05-13T18:27:43.157Z,3.65
2023-05-13T18:30:12.789Z,1.73
2023-05-13T18:32:41.026Z,1.67
2023-05-13T18:35:09.998Z,1.48
2023-05-13T18:37:38.484Z,2.03
2023-05-13T18:40:09.732Z,2.00
2023-05-13T18:42:38.042Z,2.15
2023-05-13T18:45:07.910Z,1.63
2023-05-13T18:47:36.210Z,0.70
2023-05-13T18:50:04.698Z,0.70
2023-05-13T18:52:32.911Z,2.63
2023-05-13T18:55:04.580Z,0.80
2023-05-13T18:57:34.194Z,1.73
2023-05-13T19:00:02.423Z,1.10
2023-05-13T19:02:30.896Z,1.52
2023-05-13T19:05:00.116Z,2.85
2023-05-13T19:07:28.566Z,1.73
2023-05-13T19:09:56.817Z,1.25
2023-05-13T19:12:25.090Z,1.60
2023-05-13T19:14:54.746Z,3.75
2023-05-13T19:17:23.097Z,2.67
2023-05-13T19:19:51.385Z,2.40
2023-05-13T19:22:19.610Z,2.80
2023-05-13T19:24:47.866Z,3.97
2023-05-13T19:27:16.104Z,4.93
2023-05-13T19:29:44.414Z,5.80
2023-05-13T19:32:14.005Z,6.15
2023-05-13T19:34:42.193Z,5.57
2023-05-13T19:37:10.635Z,6.55
2023-05-13T19:39:38.885Z,8.18
2023-05-13T19:42:07.416Z,6.78
2023-05-13T19:44:35.729Z,6.55
2023-05-13T19:47:05.751Z,9.48
2023-05-13T19:49:35.324Z,6.78
2023-05-13T19:52:03.592Z,7.60
2023-05-13T19:54:31.873Z,9.55
2023-05-13T19:57:00.285Z,6.88
2023-05-13T19:59:28.676Z,7.53
2023-05-13T20:01:56.907Z,7.25
2023-05-13T20:04:25.166Z,6.43
2023-05-13T20:06:54.742Z,6.88
2023-05-13T20:09:22.956Z,6.85
2023-05-13T20:11:51.236Z,7.85
2023-05-13T20:14:24.965Z,7.38
2023-05-13T20:16:53.276Z,6.50
2023-05-13T20:19:21.730Z,7.85
2023-05-13T20:21:49.983Z,7.65
2023-05-13T20:24:19.601Z,7.55
2023-05-13T20:26:47.981Z,9.60
2023-05-13T20:29:16.178Z,8.55
2023-05-13T20:31:44.459Z,15.52
2023-05-13T20:34:12.714Z,11.80
2023-05-13T20:36:40.926Z,13.80
2023-05-13T20:39:09.128Z,15.52
2023-05-13T20:41:38.782Z,13.05
2023-05-13T20:44:07.049Z,18.47
2023-05-13T20:46:35.405Z,17.23
2023-05-13T20:49:03.657Z,16.25
2023-05-13T20:51:32.000Z,16.98
2023-05-13T20:54:00.234Z,15.75
2023-05-13T20:56:28.467Z,17.55
2023-05-13T20:58:58.091Z,17.27
2023-05-13T21:01:26.586Z,15.10
2023-05-13T21:03:55.005Z,14.82
2023-05-13T21:06:23.231Z,15.50
2023-05-13T21:08:52.131Z,16.65
2023-05-13T21:11:21.352Z,15.98
2023-05-13T21:13:49.561Z,16.17
2023-05-13T21:16:19.252Z,14.55
2023-05-13T21:18:47.529Z,13.90
2023-05-13T21:21:15.822Z,15.30
2023-05-13T21:23:45.620Z,16.05
2023-05-13T21:26:14.487Z,13.95
2023-05-13T21:28:42.762Z,15.45
2023-05-13T21:31:11.110Z,14.32
2023-05-13T21:33:40.958Z,15.55
2023-05-13T21:36:09.554Z,14.73
2023-05-13T21:38:37.830Z,12.70
2023-05-13T21:41:06.136Z,14.02
2023-05-13T21:43:34.455Z,14.65
2023-05-13T21:46:03.250Z,15.32
2023-05-13T21:48:31.580Z,16.20
2023-05-13T21:51:01.192Z,14.45
2023-05-13T21:53:29.898Z,16.15
2023-05-13T21:56:00.251Z,16.15
2023-05-13T21:58:28.717Z,14.95
2023-05-13T22:00:57.056Z,17.05
2023-05-13T22:03:25.559Z,15.80
2023-05-13T22:05:53.836Z,16.88
2023-05-13T22:08:23.438Z,14.18
2023-05-13T22:10:51.750Z,15.73
2023-05-13T22:13:21.439Z,15.30
2023-05-13T22:15:49.852Z,15.70
2023-05-13T22:18:18.131Z,15.27
2023-05-13T22:20:46.446Z,12.50
2023-05-13T22:23:14.666Z,13.73
2023-05-13T22:25:44.259Z,15.82
2023-05-13T22:28:12.499Z,16.35
2023-05-13T22:30:40.709Z,16.85
2023-05-13T22:33:09.007Z,15.18
2023-05-13T22:35:37.318Z,15.57
2023-05-13T22:38:05.678Z,14.20
2023-05-13T22:40:33.968Z,13.18
2023-05-13T22:43:03.588Z,14.57
2023-05-13T22:45:31.830Z,14.75
2023-05-13T22:48:00.191Z,14.20
2023-05-13T22:50:28.603Z,13.70
2023-05-13T22:52:57.494Z,15.60
2023-05-13T22:55:25.699Z,15.45
2023-05-13T22:57:53.959Z,14.10
2023-05-13T23:00:23.948Z,15.52
2023-05-13T23:02:52.410Z,14.35
2023-05-13T23:05:20.703Z,13.85
2023-05-13T23:07:48.905Z,14.95
2023-05-13T23:10:17.267Z,17.02
2023-05-13T23:12:45.509Z,14.43
2023-05-13T23:15:15.955Z,13.65
2023-05-13T23:17:45.736Z,15.02
2023-05-13T23:20:14.074Z,13.80
2023-05-13T23:22:42.330Z,15.95
2023-05-13T23:25:11.171Z,13.25
2023-05-13T23:27:39.420Z,15.30
2023-05-13T23:30:09.077Z,13.65
2023-05-13T23:32:37.405Z,11.63
2023-05-13T23:35:08.413Z,13.48
2023-05-13T23:37:37.354Z,11.80
2023-05-13T23:40:06.905Z,15.40
2023-05-13T23:42:36.323Z,13.32
2023-05-13T23:45:05.108Z,12.90
2023-05-13T23:47:33.324Z,14.75
2023-05-13T23:50:02.212Z,12.63
2023-05-13T23:52:31.768Z,15.65
2023-05-13T23:55:00.040Z,12.18
2023-05-13T23:57:28.243Z,13.10
2023-05-13T23:59:56.478Z,16.85
